createdAt,value
2019-04-04T00:01:19.339Z,67.20
2019-04-04T00:03:47.872Z,67.24
2019-04-04T00:06:16.411Z,67.38
2019-04-04T00:08:45.091Z,67.48
2019-04-04T00:11:13.557Z,67.66
2019-04-04T00:13:42.606Z,67.91
2019-04-04T00:16:11.209Z,67.91
2019-04-04T00:18:39.674Z,68.11
2019-04-04T00:21:10.367Z,68.00
2019-04-04T00:23:38.603Z,68.54
2019-04-04T00:26:08.854Z,68.11
2019-04-04T00:28:37.492Z,68.47
2019-04-04T00:31:06.030Z,68.67
2019-04-04T00:33:34.623Z,68.70
2019-04-04T00:36:03.366Z,68.89
2019-04-04T00:38:32.182Z,68.71
2019-04-04T00:41:00.763Z,68.68
2019-04-04T00:43:29.251Z,68.56
2019-04-04T00:46:00.454Z,68.69
2019-04-04T00:48:28.069Z,68.89
2019-04-04T00:50:56.612Z,68.79
2019-04-04T00:53:25.187Z,69.09
2019-04-04T00:55:53.645Z,68.97
2019-04-04T00:58:22.136Z,69.24
2019-04-04T01:00:50.673Z,68.90
2019-04-04T01:03:20.788Z,69.05
2019-04-04T01:05:49.390Z,69.25
2019-04-04T01:08:17.903Z,69.37
2019-04-04T01:10:49.522Z,69.31
2019-04-04T01:13:16.806Z,69.64
2019-04-04T01:15:45.476Z,69.68
2019-04-04T01:18:13.936Z,69.80
2019-04-04T01:20:42.467Z,69.45
2019-04-04T01:23:11.056Z,69.54
2019-04-04T01:25:39.527Z,69.95
2019-04-04T01:28:08.732Z,69.90
2019-04-04T01:30:37.793Z,70.20
2019-04-04T01:33:06.406Z,69.99
2019-04-04T01:35:36.217Z,69.79
2019-04-04T01:38:04.880Z,69.54
2019-04-04T01:40:33.864Z,69.88
2019-04-04T01:43:02.557Z,70.18
2019-04-04T01:45:31.172Z,70.55
2019-04-04T01:47:59.771Z,70.31
2019-04-04T01:50:28.238Z,70.20
2019-04-04T01:52:58.824Z,70.51
2019-04-04T01:55:26.900Z,70.71
2019-04-04T01:57:55.507Z,70.57
2019-04-04T02:00:24.152Z,70.37
2019-04-04T02:02:55.617Z,70.76
2019-04-04T02:05:26.715Z,70.91
2019-04-04T02:07:54.603Z,71.03
2019-04-04T02:10:23.206Z,71.07
2019-04-04T02:12:51.751Z,71.25
2019-04-04T02:15:20.293Z,71.03
2019-04-04T02:17:48.791Z,71.22
2019-04-04T02:20:17.328Z,71.19
2019-04-04T02:22:45.868Z,71.35
2019-04-04T02:25:14.483Z,71.28
2019-04-04T02:27:43.019Z,71.30
2019-04-04T02:30:15.218Z,71.24
2019-04-04T02:32:42.122Z,71.26
2019-04-04T02:35:11.748Z,71.44
2019-04-04T02:37:40.850Z,71.56
2019-04-04T02:40:10.273Z,71.50
2019-04-04T02:42:39.644Z,71.62
2019-04-04T02:45:08.703Z,71.89
2019-04-04T02:47:37.722Z,71.98
2019-04-04T02:50:08.561Z,71.85
2019-04-04T02:52:37.175Z,71.78
2019-04-04T02:55:06.485Z,71.92
2019-04-04T02:57:35.745Z,72.06
2019-04-04T03:00:05.696Z,71.93
2019-04-04T03:02:36.172Z,71.93
2019-04-04T03:05:05.946Z,71.91
2019-04-04T03:07:34.563Z,71.94
2019-04-04T03:10:03.531Z,71.93
2019-04-04T03:12:32.535Z,72.01
2019-04-04T03:15:01.235Z,72.13
2019-04-04T03:17:32.681Z,72.18
2019-04-04T03:20:00.137Z,72.16
2019-04-04T03:22:28.664Z,72.08
2019-04-04T03:24:57.200Z,71.73
2019-04-04T03:27:27.410Z,71.75
2019-04-04T03:29:55.926Z,71.56
2019-04-04T03:32:24.739Z,71.27
2019-04-04T03:34:53.354Z,71.12
2019-04-04T03:37:21.901Z,71.10
2019-04-04T03:39:52.963Z,71.19
2019-04-04T03:42:20.922Z,71.08
2019-04-04T03:44:52.833Z,71.37
2019-04-04T03:47:19.739Z,71.59
2019-04-04T03:49:48.195Z,71.46
2019-04-04T03:52:16.734Z,71.23
2019-04-04T03:54:45.343Z,71.52
2019-04-04T03:57:13.882Z,71.81
2019-04-04T03:59:42.365Z,71.74
2019-04-04T04:02:10.976Z,71.96
2019-04-04T04:04:39.632Z,71.87
2019-04-04T04:07:08.114Z,71.91
2019-04-04T04:09:36.559Z,72.07
2019-04-04T04:12:05.172Z,71.90
2019-04-04T04:14:33.904Z,71.84
2019-04-04T04:17:02.488Z,71.86
2019-04-04T04:19:31.538Z,71.89
2019-04-04T04:22:00.314Z,71.64
2019-04-04T04:24:29.849Z,71.62
2019-04-04T04:26:59.021Z,71.49
2019-04-04T04:29:29.866Z,71.82
2019-04-04T04:31:57.787Z,71.68
2019-04-04T04:34:26.316Z,72.02
2019-04-04T04:36:54.975Z,71.81
2019-04-04T04:39:23.513Z,71.69
2019-04-04T04:41:54.194Z,72.01
2019-04-04T04:44:22.445Z,71.92
2019-04-04T04:46:51.244Z,71.95
2019-04-04T04:49:23.179Z,71.96
2019-04-04T04:51:50.051Z,72.17
2019-04-04T04:54:20.466Z,72.05
2019-04-04T04:56:48.919Z,72.04
2019-04-04T04:59:17.381Z,72.01
2019-04-04T05:01:45.925Z,71.47
2019-04-04T05:04:15.634Z,71.71
2019-04-04T05:06:44.102Z,72.13
2019-04-04T05:09:14.107Z,72.01
2019-04-04T05:11:42.920Z,72.26
2019-04-04T05:14:11.545Z,72.22
2019-04-04T05:16:40.149Z,71.98
2019-04-04T05:19:08.616Z,71.97
2019-04-04T05:21:37.174Z,71.92
2019-04-04T05:24:05.840Z,71.71
2019-04-04T05:26:35.534Z,71.37
2019-04-04T05:29:04.803Z,71.04
2019-04-04T05:31:33.396Z,70.61
2019-04-04T05:34:02.048Z,70.05
2019-04-04T05:36:30.639Z,69.52
2019-04-04T05:38:59.273Z,69.37
2019-04-04T05:41:28.132Z,68.67
2019-04-04T05:43:58.111Z,68.50
2019-04-04T05:46:26.658Z,67.75
2019-04-04T05:48:55.213Z,66.91
2019-04-04T05:51:23.754Z,65.79
2019-04-04T05:53:52.276Z,64.18
2019-04-04T05:56:23.926Z,63.29
2019-04-04T05:58:53.143Z,62.45
2019-04-04T06:01:22.873Z,60.54
2019-04-04T06:03:51.508Z,59.85
2019-04-04T06:06:20.057Z,57.84
2019-04-04T06:08:49.685Z,57.27
2019-04-04T06:11:20.858Z,56.87
2019-04-04T06:13:48.651Z,56.43
2019-04-04T06:16:17.137Z,55.13
2019-04-04T06:18:45.611Z,52.74
2019-04-04T06:21:14.155Z,53.20
2019-04-04T06:23:42.699Z,52.78
2019-04-04T06:26:11.243Z,51.73
2019-04-04T06:28:39.869Z,50.31
2019-04-04T06:31:08.548Z,49.15
2019-04-04T06:33:37.162Z,48.65
2019-04-04T06:36:05.773Z,47.43
2019-04-04T06:38:34.322Z,46.55
2019-04-04T06:41:03.063Z,46.22
2019-04-04T06:43:31.656Z,44.78
2019-04-04T06:46:00.197Z,45.70
2019-04-04T06:48:29.384Z,45.38
2019-04-04T06:50:58.990Z,44.23
2019-04-04T06:53:27.468Z,44.44
2019-04-04T06:55:56.102Z,44.11
2019-04-04T06:58:24.639Z,44.47
2019-04-04T07:00:53.297Z,44.78
2019-04-04T07:03:21.917Z,44.59
2019-04-04T07:05:50.533Z,44.04
2019-04-04T07:08:19.084Z,43.89
2019-04-04T07:10:57.319Z,43.35
2019-04-04T07:13:22.004Z,42.64
2019-04-04T07:16:05.633Z,42.50
2019-04-04T07:18:20.114Z,41.96
2019-04-04T07:20:48.973Z,41.74
2019-04-04T07:23:17.652Z,41.03
2019-04-04T07:25:46.266Z,41.31
2019-04-04T07:28:19.091Z,40.38
2019-04-04T07:30:47.695Z,40.23
2019-04-04T07:33:16.313Z,39.35
2019-04-04T07:35:44.797Z,38.92
2019-04-04T07:38:13.346Z,38.73
2019-04-04T07:40:41.841Z,38.52
2019-04-04T07:43:10.391Z,38.16
2019-04-04T07:45:38.854Z,37.74
2019-04-04T07:48:07.735Z,37.07
2019-04-04T07:50:36.354Z,35.66
2019-04-04T07:53:05.347Z,36.33
2019-04-04T07:55:34.240Z,36.02
2019-04-04T07:58:02.778Z,35.88
2019-04-04T08:00:31.494Z,35.95
2019-04-04T08:03:00.031Z,35.58
2019-04-04T08:05:28.659Z,34.77
2019-04-04T08:07:57.137Z,34.62
2019-04-04T08:10:25.709Z,34.57
2019-04-04T08:12:54.245Z,34.18
2019-04-04T08:15:22.857Z,33.40
2019-04-04T08:17:51.422Z,34.19
2019-04-04T08:20:20.043Z,34.03
2019-04-04T08:22:48.612Z,33.41
2019-04-04T08:25:17.310Z,32.74
2019-04-04T08:27:45.854Z,33.22
2019-04-04T08:30:15.021Z,32.19
2019-04-04T08:32:43.642Z,32.83
2019-04-04T08:35:12.384Z,32.76
2019-04-04T08:37:41.114Z,32.60
2019-04-04T08:40:10.561Z,32.29
2019-04-04T08:42:39.264Z,31.72
2019-04-04T08:45:08.679Z,32.21
2019-04-04T08:47:37.282Z,31.76
2019-04-04T08:50:07.219Z,32.08
2019-04-04T08:52:35.944Z,31.83
2019-04-04T08:55:06.156Z,31.41
2019-04-04T08:57:34.893Z,31.44
2019-04-04T09:00:04.707Z,30.57
2019-04-04T09:02:33.289Z,30.33
2019-04-04T09:05:11.939Z,30.32
2019-04-04T09:07:32.049Z,30.26
2019-04-04T09:10:01.756Z,30.23
2019-04-04T09:12:30.296Z,29.78
2019-04-04T09:14:58.910Z,29.70
2019-04-04T09:17:27.551Z,30.09
2019-04-04T09:19:56.101Z,29.49
2019-04-04T09:22:24.735Z,29.30
2019-04-04T09:24:53.364Z,29.79
2019-04-04T09:27:21.977Z,28.98
2019-04-04T09:29:50.529Z,29.38
2019-04-04T09:32:19.184Z,29.10
2019-04-04T09:34:47.800Z,29.50
2019-04-04T09:37:16.415Z,29.21
2019-04-04T09:39:45.058Z,29.57
2019-04-04T09:42:13.668Z,29.36
2019-04-04T09:44:42.240Z,29.20
2019-04-04T09:47:10.859Z,28.98
2019-04-04T09:49:39.478Z,29.01
2019-04-04T09:52:08.205Z,29.23
2019-04-04T09:54:36.813Z,28.71
2019-04-04T09:57:05.583Z,29.15
2019-04-04T09:59:34.171Z,28.83
2019-04-04T10:02:02.806Z,28.71
2019-04-04T10:04:31.412Z,28.32
2019-04-04T10:07:00.072Z,28.79
2019-04-04T10:09:28.649Z,28.86
2019-04-04T10:11:57.189Z,29.32
2019-04-04T10:14:25.841Z,29.28
2019-04-04T10:16:54.447Z,29.41
2019-04-04T10:19:23.089Z,30.02
2019-04-04T10:21:51.711Z,30.11
2019-04-04T10:24:20.248Z,30.02
2019-04-04T10:26:48.794Z,30.10
2019-04-04T10:29:17.409Z,30.44
2019-04-04T10:31:46.047Z,30.28
2019-04-04T10:34:15.683Z,30.65
2019-04-04T10:36:44.161Z,30.81
2019-04-04T10:39:13.775Z,30.70
2019-04-04T10:41:42.817Z,31.08
2019-04-04T10:44:11.342Z,31.54
2019-04-04T10:46:39.969Z,31.78
2019-04-04T10:49:08.579Z,31.61
2019-04-04T10:51:37.430Z,32.11
2019-04-04T10:54:06.072Z,32.25
2019-04-04T10:56:34.638Z,32.40
2019-04-04T10:59:03.285Z,32.79
2019-04-04T11:01:31.906Z,33.03
2019-04-04T11:04:00.452Z,33.12
2019-04-04T11:06:29.101Z,33.42
2019-04-04T11:08:57.708Z,33.12
2019-04-04T11:11:26.353Z,33.02
2019-04-04T11:13:54.995Z,32.66
2019-04-04T11:16:29.988Z,32.37
2019-04-04T11:18:53.891Z,31.36
2019-04-04T11:21:22.490Z,31.08
2019-04-04T11:23:51.030Z,30.40
2019-04-04T11:26:19.578Z,30.40
2019-04-04T11:28:48.226Z,30.74
2019-04-04T11:31:16.825Z,30.04
2019-04-04T11:33:45.472Z,29.89
2019-04-04T11:36:14.088Z,29.67
2019-04-04T11:38:44.147Z,28.54
2019-04-04T11:41:12.975Z,29.26
2019-04-04T11:43:41.888Z,29.12
2019-04-04T11:46:10.497Z,29.83
2019-04-04T11:48:40.365Z,30.20
2019-04-04T11:51:08.989Z,30.71
2019-04-04T11:53:37.620Z,30.52
2019-04-04T11:56:06.145Z,29.98
2019-04-04T11:58:34.759Z,29.90
2019-04-04T12:01:05.010Z,29.36
2019-04-04T12:03:33.553Z,29.33
2019-04-04T12:06:02.194Z,29.19
2019-04-04T12:08:30.844Z,29.21
2019-04-04T12:10:59.457Z,29.52
2019-04-04T12:13:28.070Z,29.50
2019-04-04T12:15:56.677Z,29.44
2019-04-04T12:18:25.252Z,29.26
2019-04-04T12:20:53.905Z,30.09
2019-04-04T12:23:22.597Z,30.11
2019-04-04T12:25:51.141Z,30.19
2019-04-04T12:28:19.762Z,30.34
2019-04-04T12:30:48.319Z,30.81
2019-04-04T12:33:16.912Z,30.95
2019-04-04T12:35:45.445Z,31.32
2019-04-04T12:38:13.989Z,31.58
2019-04-04T12:40:42.532Z,32.01
2019-04-04T12:43:11.222Z,32.13
2019-04-04T12:45:39.825Z,32.39
2019-04-04T12:48:09.258Z,32.66
2019-04-04T12:50:38.067Z,32.82
2019-04-04T12:53:06.781Z,33.11
2019-04-04T12:55:35.467Z,33.19
2019-04-04T12:58:04.077Z,33.37
2019-04-04T13:00:32.616Z,33.52
2019-04-04T13:03:01.161Z,33.89
2019-04-04T13:05:29.799Z,33.68
2019-04-04T13:07:58.341Z,33.56
2019-04-04T13:10:33.055Z,33.72
2019-04-04T13:12:57.384Z,33.93
2019-04-04T13:15:26.023Z,34.17
2019-04-04T13:17:54.497Z,34.42
2019-04-04T13:20:23.147Z,34.34
2019-04-04T13:22:51.838Z,34.47
2019-04-04T13:25:20.539Z,34.35
2019-04-04T13:27:49.080Z,34.38
2019-04-04T13:30:19.291Z,34.32
2019-04-04T13:32:47.836Z,34.35
2019-04-04T13:35:17.073Z,34.29
2019-04-04T13:37:45.912Z,34.52
2019-04-04T13:40:14.953Z,34.54
2019-04-04T13:42:43.570Z,34.69
2019-04-04T13:45:12.198Z,34.82
2019-04-04T13:47:40.823Z,35.01
2019-04-04T13:50:12.681Z,35.16
2019-04-04T13:52:41.669Z,35.16
2019-04-04T13:55:10.586Z,35.18
2019-04-04T13:57:39.614Z,35.30
2019-04-04T14:00:10.060Z,35.51
2019-04-04T14:02:38.813Z,35.49
2019-04-04T14:05:14.034Z,35.75
2019-04-04T14:07:43.520Z,35.73
2019-04-04T14:10:11.721Z,35.90
2019-04-04T14:12:41.436Z,36.14
2019-04-04T14:15:11.476Z,36.25
2019-04-04T14:17:43.341Z,36.41
2019-04-04T14:20:11.033Z,36.59
2019-04-04T14:22:39.763Z,36.84
2019-04-04T14:25:09.879Z,37.01
2019-04-04T14:27:38.425Z,37.26
2019-04-04T14:30:07.937Z,37.38
2019-04-04T14:32:36.549Z,37.59
2019-04-04T14:35:07.532Z,37.77
2019-04-04T14:37:36.150Z,38.06
2019-04-04T14:40:06.668Z,38.13
2019-04-04T14:42:35.322Z,38.41
2019-04-04T14:45:06.605Z,38.55
2019-04-04T14:47:35.686Z,38.73
2019-04-04T14:50:07.293Z,38.82
2019-04-04T14:52:39.059Z,39.16
2019-04-04T14:55:07.165Z,39.39
2019-04-04T14:57:35.779Z,39.88
2019-04-04T15:00:08.263Z,39.88
2019-04-04T15:02:36.876Z,40.29
2019-04-04T15:05:06.437Z,40.16
2019-04-04T15:07:36.662Z,40.04
2019-04-04T15:10:06.284Z,40.18
2019-04-04T15:12:34.892Z,40.16
2019-04-04T15:15:04.034Z,40.33
2019-04-04T15:17:32.755Z,40.35
2019-04-04T15:20:01.316Z,40.39
2019-04-04T15:22:31.951Z,40.36
2019-04-04T15:25:00.135Z,40.45
2019-04-04T15:27:28.748Z,40.69
2019-04-04T15:29:57.292Z,40.68
2019-04-04T15:32:25.921Z,40.76
2019-04-04T15:34:54.389Z,40.71
2019-04-04T15:37:23.002Z,40.71
2019-04-04T15:39:51.593Z,40.78
2019-04-04T15:42:20.196Z,40.72
2019-04-04T15:44:49.095Z,40.78
2019-04-04T15:47:17.709Z,40.84
2019-04-04T15:49:46.358Z,40.90
2019-04-04T15:52:14.929Z,40.86
2019-04-04T15:54:43.401Z,40.93
2019-04-04T15:57:12.167Z,41.03
2019-04-04T15:59:40.718Z,41.01
2019-04-04T16:02:09.358Z,41.05
2019-04-04T16:04:37.910Z,41.14
2019-04-04T16:07:08.110Z,41.23
2019-04-04T16:09:36.676Z,41.27
2019-04-04T16:12:05.322Z,41.51
2019-04-04T16:14:33.793Z,41.49
2019-04-04T16:17:02.420Z,41.47
2019-04-04T16:19:32.683Z,41.64
2019-04-04T16:22:01.328Z,41.60
2019-04-04T16:24:29.870Z,41.61
2019-04-04T16:26:58.496Z,41.93
2019-04-04T16:29:27.167Z,42.04
2019-04-04T16:31:55.785Z,42.25
2019-04-04T16:34:24.382Z,42.45
2019-04-04T16:36:52.971Z,42.49
2019-04-04T16:39:21.607Z,42.52
2019-04-04T16:42:01.464Z,42.68
2019-04-04T16:44:20.641Z,42.75
2019-04-04T16:46:49.252Z,42.88
2019-04-04T16:49:17.733Z,43.08
2019-04-04T16:51:46.390Z,43.27
2019-04-04T16:54:14.934Z,43.42
2019-04-04T16:56:43.490Z,43.60
2019-04-04T16:59:12.017Z,43.75
2019-04-04T17:01:43.376Z,43.90
2019-04-04T17:04:11.984Z,43.97
2019-04-04T17:06:40.541Z,44.14
2019-04-04T17:09:09.140Z,44.35
2019-04-04T17:11:37.781Z,44.67
2019-04-04T17:14:06.526Z,44.90
2019-04-04T17:16:35.154Z,45.26
2019-04-04T17:19:03.776Z,45.32
2019-04-04T17:21:39.892Z,45.63
2019-04-04T17:24:08.542Z,45.91
2019-04-04T17:26:37.148Z,46.23
2019-04-04T17:29:05.762Z,46.46
2019-04-04T17:31:34.410Z,46.48
2019-04-04T17:34:03.557Z,46.57
2019-04-04T17:36:32.869Z,46.53
2019-04-04T17:39:01.887Z,46.49
2019-04-04T17:41:30.702Z,46.96
2019-04-04T17:43:59.319Z,46.77
2019-04-04T17:46:28.429Z,46.96
2019-04-04T17:48:57.557Z,47.34
2019-04-04T17:51:26.232Z,47.40
2019-04-04T17:53:54.779Z,47.49
2019-04-04T17:56:23.742Z,47.73
2019-04-04T17:58:52.437Z,47.96
2019-04-04T18:01:22.742Z,48.19
2019-04-04T18:03:51.350Z,48.33
2019-04-04T18:06:20.004Z,48.49
2019-04-04T18:08:48.678Z,48.70
2019-04-04T18:11:17.285Z,49.03
2019-04-04T18:13:45.901Z,49.17
2019-04-04T18:16:15.092Z,49.51
2019-04-04T18:18:43.634Z,49.46
2019-04-04T18:21:12.188Z,49.61
2019-04-04T18:23:40.687Z,49.83
2019-04-04T18:26:09.304Z,49.70
2019-04-04T18:28:39.481Z,49.55
2019-04-04T18:31:08.322Z,49.80
2019-04-04T18:33:37.223Z,49.96
2019-04-04T18:36:05.908Z,50.15
2019-04-04T18:38:34.551Z,50.27
2019-04-04T18:41:03.235Z,50.39
2019-04-04T18:43:31.780Z,50.39
2019-04-04T18:46:00.402Z,50.68
2019-04-04T18:48:28.947Z,50.89
2019-04-04T18:50:57.501Z,51.24
2019-04-04T18:53:26.107Z,51.49
2019-04-04T18:55:54.731Z,51.93
2019-04-04T18:58:23.289Z,52.06
2019-04-04T19:00:52.044Z,52.26
2019-04-04T19:03:20.879Z,52.58
2019-04-04T19:05:49.552Z,52.96
2019-04-04T19:08:18.162Z,53.14
2019-04-04T19:10:46.684Z,53.58
2019-04-04T19:13:15.320Z,53.81
2019-04-04T19:15:44.084Z,53.81
2019-04-04T19:18:12.719Z,54.38
2019-04-04T19:20:41.328Z,54.59
2019-04-04T19:23:09.872Z,54.86
2019-04-04T19:25:38.531Z,55.15
2019-04-04T19:28:07.241Z,55.36
2019-04-04T19:30:35.891Z,55.56
2019-04-04T19:33:04.645Z,56.09
2019-04-04T19:35:33.211Z,56.23
2019-04-04T19:38:01.819Z,56.52
2019-04-04T19:40:30.476Z,56.93
2019-04-04T19:42:59.016Z,57.35
2019-04-04T19:45:27.626Z,58.08
2019-04-04T19:47:56.358Z,57.80
2019-04-04T19:50:25.242Z,58.05
2019-04-04T19:52:53.806Z,58.63
2019-04-04T19:55:22.483Z,59.25
2019-04-04T19:57:51.023Z,59.23
2019-04-04T20:00:19.709Z,59.41
2019-04-04T20:02:48.246Z,59.83
2019-04-04T20:05:17.237Z,59.93
2019-04-04T20:07:45.869Z,60.30
2019-04-04T20:10:14.952Z,60.62
2019-04-04T20:12:43.492Z,60.58
2019-04-04T20:15:12.807Z,60.56
2019-04-04T20:17:41.272Z,60.71
2019-04-04T20:20:10.203Z,60.79
2019-04-04T20:22:38.806Z,60.93
2019-04-04T20:25:08.348Z,61.23
2019-04-04T20:27:37.024Z,61.40
2019-04-04T20:30:07.934Z,61.60
2019-04-04T20:32:36.607Z,61.81
2019-04-04T20:35:08.547Z,62.58
2019-04-04T20:37:37.234Z,62.55
2019-04-04T20:40:06.925Z,63.21
2019-04-04T20:42:35.572Z,63.18
2019-04-04T20:45:05.275Z,63.11
2019-04-04T20:47:34.061Z,63.42
2019-04-04T20:50:03.447Z,64.26
2019-04-04T20:52:31.906Z,63.92
2019-04-04T20:55:00.446Z,64.06
2019-04-04T20:57:29.056Z,64.26
2019-04-04T20:59:57.868Z,64.30
2019-04-04T21:02:26.415Z,64.46
2019-04-04T21:04:55.221Z,64.47
2019-04-04T21:07:23.754Z,64.79
2019-04-04T21:09:52.402Z,64.72
2019-04-04T21:12:20.976Z,64.71
2019-04-04T21:14:49.579Z,64.72
2019-04-04T21:17:18.155Z,64.69
2019-04-04T21:19:46.690Z,64.96
2019-04-04T21:22:26.828Z,65.06
2019-04-04T21:24:45.530Z,64.99
2019-04-04T21:27:14.104Z,65.35
2019-04-04T21:29:42.573Z,65.57
2019-04-04T21:32:11.076Z,65.74
2019-04-04T21:34:39.610Z,65.96
2019-04-04T21:37:08.236Z,66.02
2019-04-04T21:39:36.893Z,66.13
2019-04-04T21:42:05.501Z,66.41
2019-04-04T21:44:34.141Z,66.58
2019-04-04T21:47:02.680Z,66.64
2019-04-04T21:49:32.874Z,66.67
2019-04-04T21:52:01.409Z,66.82
2019-04-04T21:54:29.944Z,66.95
2019-04-04T21:56:58.593Z,66.84
2019-04-04T21:59:28.864Z,67.06
2019-04-04T22:01:57.477Z,67.23
2019-04-04T22:04:26.255Z,67.33
2019-04-04T22:06:54.835Z,67.61
2019-04-04T22:09:23.515Z,67.64
2019-04-04T22:11:52.238Z,67.88
2019-04-04T22:14:21.988Z,67.98
2019-04-04T22:16:51.092Z,67.97
2019-04-04T22:19:19.754Z,68.29
2019-04-04T22:21:49.728Z,68.45
2019-04-04T22:24:18.272Z,68.59
2019-04-04T22:26:46.891Z,68.79
2019-04-04T22:29:15.412Z,68.91
2019-04-04T22:31:44.004Z,69.15
2019-04-04T22:34:12.605Z,69.29
2019-04-04T22:36:47.259Z,69.17
2019-04-04T22:39:15.835Z,69.56
2019-04-04T22:41:44.518Z,69.46
2019-04-04T22:44:13.057Z,69.38
2019-04-04T22:46:41.675Z,69.73
2019-04-04T22:49:10.279Z,69.99
2019-04-04T22:51:38.963Z,69.94
2019-04-04T22:54:07.567Z,70.10
2019-04-04T22:56:36.217Z,69.98
2019-04-04T22:59:04.934Z,70.22
2019-04-04T23:01:33.718Z,70.11
2019-04-04T23:04:02.256Z,70.29
2019-04-04T23:06:30.946Z,70.44
2019-04-04T23:08:59.563Z,70.66
2019-04-04T23:11:28.038Z,70.87
2019-04-04T23:13:56.676Z,70.83
2019-04-04T23:16:25.278Z,70.88
2019-04-04T23:18:53.918Z,71.11
2019-04-04T23:21:22.747Z,71.00
2019-04-04T23:23:51.320Z,71.05
2019-04-04T23:26:20.012Z,71.48
2019-04-04T23:28:48.595Z,71.32
2019-04-04T23:31:17.346Z,71.50
2019-04-04T23:33:45.957Z,71.48
2019-04-04T23:36:14.696Z,71.55
2019-04-04T23:38:43.306Z,71.77
2019-04-04T23:41:11.884Z,71.97
2019-04-04T23:43:40.434Z,71.94
2019-04-04T23:46:09.064Z,71.90
2019-04-04T23:48:37.537Z,72.08
2019-04-04T23:51:06.191Z,72.26
2019-04-04T23:53:34.772Z,72.28
2019-04-04T23:56:03.310Z,72.43
2019-04-04T23:58:31.774Z,72.44
